Time;durP1;ratioP1;P1;durP2;ratioP2;P2;SDS_P1;SDS_P2;PMS_P1;PMS_P2;Temp;Humidity;BMP_temperature;BMP_pressure;BME280_temperature;BME280_humidity;BME280_pressure;Samples;Min_cycle;Max_cycle;Signal;HPM_P1;HPM_P2
2022/11/17 00:02:14;;;;;;;;;39.00;35.00;;;;;17.42;66.30;97746.22;4876646;29;8849;-78
2022/11/17 00:04:44;;;;;;;;;40.75;35.25;;;;;17.64;65.52;97749.31;4819926;29;8863;-79
2022/11/17 00:07:13;;;;;;;;;34.00;32.80;;;;;17.86;64.69;97742.78;4872482;29;8883;-78
2022/11/17 00:09:42;;;;;;;;;38.25;33.25;;;;;17.96;64.06;97741.31;4890962;29;8873;-77
2022/11/17 00:15:00;;;;;;;;;39.80;34.20;;;;;17.56;65.19;97758.59;4875143;29;9008;-78
2022/11/17 00:17:30;;;;;;;;;42.75;35.75;;;;;17.14;67.28;97759.19;4874428;29;8905;-80
2022/11/17 00:22:47;;;;;;;;;40.60;34.20;;;;;16.30;70.95;97761.09;4834680;29;8865;-79
2022/11/17 00:25:16;;;;;;;;;45.00;36.50;;;;;16.29;70.95;97760.22;4833449;29;8890;-79
2022/11/17 00:27:44;;;;;;;;;38.20;34.00;;;;;16.66;69.62;97758.25;4828447;29;8890;-78
2022/11/17 00:34:03;;;;;;;;;42.75;36.00;;;;;16.63;69.73;97750.53;4819217;29;8909;-78
2022/11/17 00:35:53;;;;;;;;;39.60;35.20;;;;;16.26;71.47;97757.75;4816308;29;8915;-76
2022/11/17 00:38:22;;;;;;;;;34.60;32.40;;;;;16.40;70.42;97766.69;4801720;29;8887;-79
2022/11/17 00:40:50;;;;;;;;;40.60;35.40;;;;;16.63;69.97;97765.47;4817813;29;8893;-77
2022/11/17 00:43:19;;;;;;;;;43.25;36.75;;;;;16.52;70.37;97774.81;4802911;29;8856;-77
2022/11/17 00:45:47;;;;;;;;;40.60;36.00;;;;;16.65;70.00;97779.41;4823328;29;8888;-78
2022/11/17 00:48:18;;;;;;;;;37.40;33.20;;;;;16.83;69.72;97777.59;4831215;29;8900;-78
2022/11/17 00:50:46;;;;;;;;;43.00;35.60;;;;;16.87;69.58;97776.50;4825112;29;9023;-79
2022/11/17 00:53:15;;;;;;;;;41.60;36.40;;;;;17.11;68.75;97782.19;4817954;29;9663;-78
2022/11/17 00:55:43;;;;;;;;;39.00;34.20;;;;;16.75;69.90;97794.63;4817311;29;8943;-77
2022/11/17 00:58:12;;;;;;;;;33.60;31.00;;;;;16.72;70.69;97793.94;4801655;29;8893;-78
2022/11/17 01:00:41;;;;;;;;;32.60;31.00;;;;;16.02;73.57;97788.78;4840805;29;8904;-78
2022/11/17 01:03:10;;;;;;;;;24.00;22.40;;;;;16.24;72.72;97793.81;4851843;29;9099;-78
2022/11/17 01:05:39;;;;;;;;;23.40;23.00;;;;;16.35;72.33;97786.22;4852106;29;8881;-77
2022/11/17 01:08:08;;;;;;;;;19.60;17.80;;;;;16.46;72.34;97787.41;4852078;29;8873;-77
2022/11/17 01:10:37;;;;;;;;;21.40;19.80;;;;;16.30;72.04;97790.00;4863289;29;8882;-79
2022/11/17 01:13:05;;;;;;;;;17.80;16.60;;;;;16.02;73.52;97801.09;4856175;29;8878;-77
2022/11/17 01:15:34;;;;;;;;;19.80;19.80;;;;;15.84;74.70;97801.09;4855441;29;8891;-78
2022/11/17 01:18:03;;;;;;;;;22.80;22.60;;;;;15.38;77.15;97811.19;4844217;29;9644;-77
2022/11/17 01:20:33;;;;;;;;;25.20;23.40;;;;;14.91;79.53;97804.63;4850004;29;8964;-76
2022/11/17 01:23:03;;;;;;;;;29.80;27.60;;;;;14.85;80.31;97804.91;4834856;29;8886;-79
2022/11/17 01:25:31;;;;;;;;;22.00;20.40;;;;;14.57;82.28;97810.56;4859173;29;8923;-78
2022/11/17 01:28:00;;;;;;;;;14.40;14.20;;;;;14.39;83.53;97813.06;4856754;29;8879;-79
2022/11/17 01:30:29;;;;;;;;;31.60;27.60;;;;;14.15;84.99;97822.81;4840701;29;8901;-78
2022/11/17 01:32:57;;;;;;;;;32.40;29.20;;;;;14.12;85.83;97822.09;4856177;29;8970;-79
2022/11/17 01:35:26;;;;;;;;;33.00;29.00;;;;;14.17;85.84;97814.91;4852378;29;9061;-77
2022/11/17 01:37:54;;;;;;;;;32.20;28.60;;;;;14.12;86.58;97822.09;4856758;29;8871;-79
2022/11/17 01:40:24;;;;;;;;;29.20;27.40;;;;;14.22;86.34;97828.69;4862453;29;8907;-78
2022/11/17 01:42:53;;;;;;;;;39.60;32.60;;;;;14.34;85.37;97833.38;4852798;29;8882;-78
2022/11/17 01:45:24;;;;;;;;;30.80;30.20;;;;;14.40;85.18;97822.63;4865140;29;8910;-81
2022/11/17 01:47:56;;;;;;;;;38.40;35.60;;;;;14.32;85.43;97829.13;4859604;29;8986;-77
2022/11/17 01:50:31;;;;;;;;;32.80;28.80;;;;;14.33;85.05;97822.94;4852635;29;8870;-77
2022/11/17 01:53:04;;;;;;;;;35.00;32.60;;;;;14.28;85.63;97823.16;4822346;29;8890;-76
2022/11/17 01:55:38;;;;;;;;;36.40;33.60;;;;;14.45;84.71;97811.09;4838718;29;8939;-76
2022/11/17 01:58:10;;;;;;;;;39.80;36.20;;;;;14.20;85.71;97815.63;4853788;29;8870;-77
2022/11/17 02:00:39;;;;;;;;;33.00;30.20;;;;;14.09;87.12;97810.00;4871089;29;8890;-80
2022/11/17 02:03:07;;;;;;;;;33.20;32.40;;;;;14.26;85.68;97821.53;4856436;29;9693;-79
2022/11/17 02:05:43;;;;;;;;;37.40;35.40;;;;;14.21;86.05;97813.84;4857301;29;8906;-76
2022/11/17 02:08:14;;;;;;;;;28.00;27.40;;;;;14.41;85.12;97805.97;4856303;29;8879;-79
2022/11/17 02:10:44;;;;;;;;;32.00;28.60;;;;;14.39;85.03;97817.47;4856375;29;9008;-78
2022/11/17 02:13:19;;;;;;;;;34.40;33.20;;;;;14.85;82.80;97822.44;4858198;29;8875;-77
2022/11/17 02:15:49;;;;;;;;;40.75;36.50;;;;;15.07;81.20;97823.16;4873039;29;8907;-78
2022/11/17 02:18:18;;;;;;;;;40.00;33.25;;;;;14.79;82.55;97826.19;4872520;29;8890;-76
2022/11/17 02:21:00;;;;;;;;;49.25;40.00;;;;;14.37;83.88;97833.25;4858051;29;8895;-76
2022/11/17 02:24:04;;;;;;;;;44.00;37.50;;;;;14.36;84.45;97847.25;4841804;29;8863;-76
2022/11/17 02:27:05;;;;;;;;;42.50;37.00;;;;;14.13;84.70;97842.16;4833720;29;8902;-76
2022/11/17 02:29:42;;;;;;;;;44.50;38.25;;;;;13.64;87.75;97851.13;4856901;29;8906;-77
2022/11/17 02:32:17;;;;;;;;;46.00;39.75;;;;;13.49;90.11;97846.50;4857410;29;8883;-77
2022/11/17 02:34:50;;;;;;;;;51.75;40.75;;;;;13.51;89.48;97852.53;4863445;29;8899;-78
2022/11/17 02:37:27;;;;;;;;;40.75;37.25;;;;;13.45;89.82;97858.03;4870523;29;8911;-77
2022/11/17 02:40:02;;;;;;;;;41.40;36.40;;;;;13.42;88.87;97847.66;4848402;29;8868;-76
2022/11/17 02:45:30;;;;;;;;;33.20;31.60;;;;;12.80;91.35;97868.28;4836814;29;8916;-77
2022/11/17 02:48:02;;;;;;;;;13.80;11.40;;;;;12.91;91.09;97862.69;4837122;29;9725;-78
2022/11/17 02:50:34;;;;;;;;;26.60;23.60;;;;;12.96;91.26;97860.72;4845648;29;9626;-78
2022/11/17 02:53:03;;;;;;;;;26.00;22.60;;;;;12.93;91.06;97873.06;4839975;29;8875;-78
2022/11/17 02:55:34;;;;;;;;;16.20;13.80;;;;;12.73;90.75;97874.66;4839306;29;8922;-77
2022/11/17 02:58:03;;;;;;;;;18.40;14.60;;;;;12.57;91.46;97883.94;4840360;29;8879;-77
2022/11/17 03:00:38;;;;;;;;;16.20;16.20;;;;;12.62;91.75;97885.50;4837644;29;8874;-78
2022/11/17 03:03:22;;;;;;;;;13.80;13.80;;;;;12.27;92.38;97884.97;4841003;29;8965;-77
2022/11/17 03:06:03;;;;;;;;;18.00;15.60;;;;;12.55;91.12;97880.53;4824650;29;8948;-77
2022/11/17 03:08:45;;;;;;;;;20.40;19.20;;;;;12.33;91.89;97886.53;4838357;29;8913;-77
2022/11/17 03:11:14;;;;;;;;;17.80;16.00;;;;;12.55;91.60;97891.00;4863954;29;8909;-76
2022/11/17 03:13:49;;;;;;;;;18.80;17.60;;;;;12.73;90.46;97898.19;4857125;29;8883;-76
2022/11/17 03:16:30;;;;;;;;;16.00;15.00;;;;;12.43;91.71;97897.50;4846493;29;8874;-77
2022/11/17 03:19:09;;;;;;;;;15.20;15.00;;;;;12.20;92.77;97900.91;4840166;29;9059;-77
2022/11/17 03:21:41;;;;;;;;;14.40;14.20;;;;;12.28;92.00;97899.72;4853391;29;8973;-77
2022/11/17 03:24:16;;;;;;;;;16.20;15.60;;;;;12.55;91.34;97899.72;4840017;29;9735;-78
2022/11/17 03:26:50;;;;;;;;;13.40;13.40;;;;;12.54;91.43;97905.84;4840096;29;8897;-77
2022/11/17 03:29:22;;;;;;;;;16.40;16.00;;;;;12.65;89.72;97906.31;4847031;29;8910;-78
2022/11/17 03:31:58;;;;;;;;;16.20;14.60;;;;;12.59;89.40;97909.16;4870303;29;8901;-75
2022/11/17 03:34:33;;;;;;;;;14.60;12.80;;;;;12.41;91.52;97908.00;4862172;29;8897;-76
2022/11/17 03:37:05;;;;;;;;;17.60;15.20;;;;;12.56;90.39;97908.41;4840376;29;8922;-75
2022/11/17 03:39:36;;;;;;;;;15.20;15.00;;;;;12.25;91.05;97912.09;4852140;29;8908;-76
2022/11/17 03:42:14;;;;;;;;;14.20;13.40;;;;;11.90;92.54;97921.91;4854780;29;8879;-76
2022/11/17 03:44:47;;;;;;;;;20.40;20.20;;;;;11.86;91.75;97918.50;4857085;29;8913;-77
2022/11/17 03:47:21;;;;;;;;;20.40;20.40;;;;;11.60;93.08;97923.69;4859585;29;9730;-76
2022/11/17 03:49:55;;;;;;;;;19.40;17.60;;;;;11.48;93.40;97923.19;4864203;29;8952;-75
2022/11/17 03:52:25;;;;;;;;;22.40;19.00;;;;;11.71;92.26;97921.63;4854177;29;8896;-76
2022/11/17 03:54:54;;;;;;;;;24.80;23.40;;;;;11.52;92.81;97914.34;4853862;29;8898;-78
2022/11/17 03:57:31;;;;;;;;;25.20;23.00;;;;;11.62;92.70;97929.72;4853474;29;9615;-75
2022/11/17 04:00:04;;;;;;;;;28.40;24.60;;;;;11.64;92.38;97923.53;4853895;29;8876;-77
2022/11/17 04:02:43;;;;;;;;;29.20;26.00;;;;;11.75;91.86;97912.78;4853820;29;8868;-76
2022/11/17 04:05:12;;;;;;;;;29.80;22.60;;;;;11.54;92.47;97918.69;4852677;29;8899;-76
2022/11/17 04:07:43;;;;;;;;;31.60;26.60;;;;;11.63;91.40;97926.22;4853418;29;8930;-76
2022/11/17 04:10:13;;;;;;;;;22.20;20.80;;;;;11.78;90.66;97924.91;4853628;29;8868;-76
2022/11/17 04:18:22;;;;;;;;;31.20;25.00;;;;;11.37;91.65;97930.47;4855537;29;8914;-76
2022/11/17 04:20:51;;;;;;;;;28.20;26.60;;;;;11.53;91.63;97936.09;4855317;29;8901;-77
2022/11/17 04:23:20;;;;;;;;;32.20;29.80;;;;;11.40;91.23;97947.78;4862045;29;8879;-78
2022/11/17 04:28:37;;;;;;;;;32.00;28.00;;;;;11.39;91.35;97951.31;4875191;29;8887;-76
2022/11/17 04:31:09;;;;;;;;;32.80;29.20;;;;;11.43;91.38;97955.53;4856795;29;8867;-76
2022/11/17 04:33:41;;;;;;;;;29.00;26.20;;;;;11.13;91.22;97942.47;4856174;29;8886;-78
2022/11/17 04:36:10;;;;;;;;;33.00;29.60;;;;;11.22;91.86;97946.59;4856355;29;8875;-77
2022/11/17 04:38:41;;;;;;;;;42.20;35.20;;;;;11.31;91.35;97949.78;4854581;29;8886;-76
2022/11/17 04:43:57;;;;;;;;;29.40;28.40;;;;;11.37;91.99;97972.22;4855981;29;8886;-77
2022/11/17 04:46:26;;;;;;;;;31.00;31.00;;;;;11.54;92.04;97953.47;4870360;29;8894;-78
2022/11/17 04:48:58;;;;;;;;;57.00;46.00;;;;;11.77;90.56;97962.34;4853831;29;8894;-75
2022/11/17 04:51:27;;;;;;;;;38.60;37.00;;;;;11.75;89.71;97972.84;4856816;29;9642;-75
2022/11/17 04:53:56;;;;;;;;;34.60;31.00;;;;;12.16;88.13;97970.72;4855445;29;9669;-76
2022/11/17 04:56:26;;;;;;;;;29.20;28.80;;;;;11.59;90.13;97990.75;4837274;29;9699;-77
2022/11/17 04:58:55;;;;;;;;;39.80;34.80;;;;;11.43;90.05;97987.72;4836141;29;8894;-74
2022/11/17 05:01:25;;;;;;;;;39.40;35.00;;;;;11.40;90.08;97973.88;4836978;29;8902;-75
2022/11/17 05:03:55;;;;;;;;;44.00;38.60;;;;;11.42;89.97;97975.56;4836895;29;8882;-75
2022/11/17 05:06:27;;;;;;;;;52.60;39.80;;;;;11.44;89.80;97975.53;4847262;29;8990;-75
2022/11/17 05:08:56;;;;;;;;;48.00;40.60;;;;;11.68;89.22;97982.63;4856317;29;8868;-75
2022/11/17 05:14:14;;;;;;;;;62.00;47.50;;;;;12.04;86.39;97964.13;4857066;29;8890;-79
2022/11/17 05:19:38;;;;;;;;;72.50;56.50;;;;;12.30;85.19;97980.72;4874469;29;8895;-77
2022/11/17 05:24:54;;;;;;;;;49.75;38.50;;;;;12.28;84.10;97987.75;4858871;29;8870;-78
2022/11/17 05:27:24;;;;;;;;;49.75;42.00;;;;;11.72;85.99;97986.00;4857444;29;8911;-74
2022/11/17 05:29:52;;;;;;;;;43.20;38.00;;;;;11.97;85.57;97978.28;4841949;29;8893;-78
2022/11/17 05:32:21;;;;;;;;;44.50;37.50;;;;;11.76;86.51;97994.56;4839778;29;8899;-75
2022/11/17 05:34:50;;;;;;;;;46.60;40.40;;;;;12.05;84.53;97986.72;4839909;29;8900;-74
2022/11/17 05:37:20;;;;;;;;;49.00;39.75;;;;;11.90;84.10;98000.28;4839611;29;8901;-80
2022/11/17 05:39:48;;;;;;;;;41.75;36.25;;;;;11.93;84.24;98008.03;4851965;29;8873;-75
2022/11/17 05:42:17;;;;;;;;;46.80;38.40;;;;;12.22;83.03;98011.47;4854204;29;8882;-76
2022/11/17 05:44:47;;;;;;;;;44.40;38.20;;;;;12.52;82.50;98014.84;4854267;29;8913;-76
2022/11/17 05:47:15;;;;;;;;;42.50;37.75;;;;;12.04;83.99;98024.22;4838239;29;8973;-77
2022/11/17 05:49:44;;;;;;;;;44.00;36.50;;;;;12.15;82.68;98034.31;4839295;29;9012;-76
2022/11/17 05:52:13;;;;;;;;;43.00;38.50;;;;;12.21;83.34;98034.16;4840205;29;8901;-76
2022/11/17 05:54:43;;;;;;;;;45.50;39.50;;;;;12.20;82.82;98040.28;4858044;29;8929;-76
2022/11/17 05:57:16;;;;;;;;;44.50;39.00;;;;;12.39;81.83;98039.69;4858269;29;8871;-77
2022/11/17 05:59:48;;;;;;;;;46.25;39.50;;;;;12.42;82.17;98043.06;4857007;29;8887;-76
2022/11/17 06:02:20;;;;;;;;;44.00;38.00;;;;;12.76;80.50;98041.06;4844429;29;8855;-75
2022/11/17 06:04:49;;;;;;;;;38.60;33.20;;;;;12.84;79.65;98039.09;4857943;29;8909;-76
2022/11/17 06:07:19;;;;;;;;;39.20;34.40;;;;;12.94;79.68;98045.69;4849887;29;8903;-76
2022/11/17 06:09:51;;;;;;;;;46.50;38.75;;;;;12.86;79.17;98040.72;4872086;29;9759;-75
2022/11/17 06:12:19;;;;;;;;;44.00;38.00;;;;;13.07;78.91;98051.38;4855936;29;8944;-77
2022/11/17 06:14:48;;;;;;;;;40.00;36.00;;;;;12.86;79.06;98042.50;4871851;29;9041;-76
2022/11/17 06:17:21;;;;;;;;;38.50;35.00;;;;;12.76;79.04;98052.41;4855649;29;8946;-76
2022/11/17 06:19:56;;;;;;;;;48.25;38.00;;;;;12.79;78.63;98061.91;4870583;29;8867;-77
2022/11/17 06:22:26;;;;;;;;;42.00;37.25;;;;;12.42;79.61;98063.97;4856938;29;9692;-75
2022/11/17 06:24:57;;;;;;;;;44.00;39.25;;;;;12.42;80.89;98074.44;4872260;29;8998;-76
2022/11/17 06:27:28;;;;;;;;;48.50;38.25;;;;;12.73;79.83;98073.44;4872197;29;8914;-76
2022/11/17 06:29:59;;;;;;;;;51.00;41.25;;;;;12.37;80.74;98075.50;4855230;29;8979;-75
2022/11/17 06:32:28;;;;;;;;;48.25;40.00;;;;;12.37;79.98;98076.34;4854976;29;8892;-76
2022/11/17 06:34:57;;;;;;;;;44.50;38.50;;;;;11.99;81.12;98093.19;4875129;29;8885;-75
2022/11/17 06:37:26;;;;;;;;;49.50;41.75;;;;;12.16;81.73;98090.09;4851374;29;8877;-76
2022/11/17 06:39:56;;;;;;;;;55.00;45.25;;;;;11.84;81.58;98094.47;4851293;29;8904;-75
2022/11/17 06:45:08;;;;;;;;;48.00;37.75;;;;;11.94;81.00;98103.75;4851611;29;8986;-77
2022/11/17 06:47:37;;;;;;;;;52.00;43.75;;;;;12.17;80.08;98097.84;4868646;29;8879;-78
2022/11/17 06:50:06;;;;;;;;;51.25;38.50;;;;;11.83;81.83;98108.41;4855194;29;9006;-77
2022/11/17 06:52:35;;;;;;;;;46.75;41.00;;;;;11.86;80.84;98103.13;4864354;29;8901;-77
2022/11/17 06:55:06;;;;;;;;;53.00;42.25;;;;;11.67;81.87;98110.63;4865228;29;9009;-78
2022/11/17 06:57:34;;;;;;;;;51.00;41.25;;;;;11.85;81.06;98111.84;4860639;29;10224;-77
2022/11/17 07:00:04;;;;;;;;;52.00;39.25;;;;;11.89;80.91;98126.53;4821572;29;8941;-77
2022/11/17 07:02:35;;;;;;;;;43.00;36.00;;;;;11.79;80.75;98122.47;4843434;29;8901;-76
2022/11/17 07:05:04;;;;;;;;;42.75;36.75;;;;;11.66;81.61;98119.34;4837203;29;8862;-78
2022/11/17 07:07:33;;;;;;;;;40.60;35.40;;;;;11.93;80.13;98116.88;4846148;29;8873;-78
2022/11/17 07:10:02;;;;;;;;;45.00;38.20;;;;;11.96;79.37;98111.56;4835940;29;8957;-75
2022/11/17 07:12:33;;;;;;;;;50.25;40.25;;;;;12.51;77.75;98119.50;4857991;29;8873;-77
2022/11/17 07:15:02;;;;;;;;;42.00;36.75;;;;;12.65;76.52;98127.75;4857155;29;8879;-76
2022/11/17 07:17:31;;;;;;;;;37.80;35.00;;;;;11.88;78.35;98138.72;4864576;29;8883;-78
2022/11/17 07:20:00;;;;;;;;;38.80;36.00;;;;;11.71;79.59;98133.13;4861086;29;8964;-78
2022/11/17 07:22:29;;;;;;;;;32.40;31.80;;;;;11.46;80.45;98136.41;4855041;29;8863;-75
2022/11/17 07:24:57;;;;;;;;;47.00;36.60;;;;;11.70;80.13;98136.63;4871185;29;8879;-74
2022/11/17 07:27:26;;;;;;;;;36.80;34.60;;;;;11.88;80.07;98130.88;4856004;29;8929;-76
2022/11/17 07:29:56;;;;;;;;;37.20;32.00;;;;;11.74;79.60;98129.56;4862534;29;8899;-76
2022/11/17 07:32:25;;;;;;;;;41.60;36.20;;;;;12.02;78.61;98127.94;4872202;29;8923;-74
2022/11/17 07:34:53;;;;;;;;;43.00;36.20;;;;;11.83;78.64;98137.13;4859305;29;8970;-74
2022/11/17 07:37:22;;;;;;;;;51.75;42.75;;;;;11.65;80.34;98143.75;4856078;29;8979;-76
2022/11/17 07:39:50;;;;;;;;;35.00;33.20;;;;;11.78;78.94;98137.28;4855865;29;8899;-75
2022/11/17 07:42:19;;;;;;;;;32.60;31.40;;;;;11.61;79.06;98144.75;4855993;29;8954;-74
2022/11/17 07:44:53;;;;;;;;;42.75;37.00;;;;;12.15;78.29;98153.69;4855929;29;8887;-77
2022/11/17 07:47:24;;;;;;;;;40.40;35.60;;;;;12.06;77.51;98154.78;4856793;29;8863;-78
2022/11/17 07:49:52;;;;;;;;;41.25;37.50;;;;;11.77;78.33;98172.13;4855913;29;8901;-79
2022/11/17 07:52:21;;;;;;;;;40.25;37.25;;;;;12.23;77.31;98163.03;4856086;29;8932;-79
2022/11/17 07:54:50;;;;;;;;;37.20;35.20;;;;;12.46;77.23;98157.09;4871314;29;8902;-77
2022/11/17 07:57:20;;;;;;;;;40.00;37.00;;;;;12.87;75.35;98154.94;4857223;29;8887;-79
2022/11/17 07:59:48;;;;;;;;;41.00;37.75;;;;;12.84;73.74;98152.41;4840189;29;8895;-78
2022/11/17 08:02:17;;;;;;;;;40.50;35.25;;;;;12.62;74.57;98160.06;4854359;29;8883;-77
2022/11/17 08:04:47;;;;;;;;;43.75;37.50;;;;;12.74;74.49;98155.38;4854804;29;9001;-79
2022/11/17 08:07:16;;;;;;;;;41.00;35.00;;;;;12.81;73.45;98159.50;4839096;29;8890;-78
2022/11/17 08:09:44;;;;;;;;;41.20;35.40;;;;;12.74;74.29;98158.84;4855737;29;8879;-77
2022/11/17 08:12:13;;;;;;;;;42.75;38.00;;;;;12.69;73.57;98168.59;4854121;29;8905;-79
2022/11/17 08:14:41;;;;;;;;;38.40;33.20;;;;;12.85;73.72;98159.38;4854103;29;8871;-78
2022/11/17 08:17:10;;;;;;;;;42.00;34.00;;;;;12.62;73.78;98154.00;4856114;29;8972;-76
2022/11/17 08:19:38;;;;;;;;;37.40;35.80;;;;;12.97;74.08;98152.03;4850903;29;9041;-78
2022/11/17 08:22:09;;;;;;;;;38.80;35.40;;;;;12.86;72.88;98150.59;4850190;29;8882;-78
2022/11/17 08:24:37;;;;;;;;;36.80;33.60;;;;;12.47;74.59;98158.78;4867439;29;8890;-77
2022/11/17 08:27:06;;;;;;;;;45.00;37.75;;;;;12.40;75.82;98154.69;4874952;29;8894;-77
2022/11/17 08:29:35;;;;;;;;;40.50;35.50;;;;;12.31;75.88;98149.72;4862651;29;8879;-77
2022/11/17 08:32:04;;;;;;;;;48.75;40.75;;;;;13.01;74.74;98156.25;4855564;29;8887;-79
2022/11/17 08:34:32;;;;;;;;;40.50;37.00;;;;;13.28;72.94;98149.22;4855218;29;8903;-78
2022/11/17 08:37:01;;;;;;;;;43.50;36.75;;;;;13.36;71.46;98151.63;4815881;29;8927;-77
2022/11/17 08:39:31;;;;;;;;;40.20;36.20;;;;;13.55;70.16;98155.28;4832739;29;8913;-77
2022/11/17 08:42:00;;;;;;;;;44.50;36.75;;;;;13.50;70.09;98159.03;4789666;29;8897;-78
2022/11/17 08:44:30;;;;;;;;;46.75;37.75;;;;;13.62;70.04;98162.03;4819223;29;8889;-77
2022/11/17 08:46:59;;;;;;;;;45.25;38.75;;;;;13.79;69.71;98171.91;4820125;29;8957;-79
2022/11/17 08:49:27;;;;;;;;;42.80;37.00;;;;;13.77;68.21;98167.66;4834189;29;9884;-79
2022/11/17 08:51:56;;;;;;;;;43.00;37.25;;;;;13.54;68.85;98171.94;4832569;29;8878;-78
2022/11/17 08:54:24;;;;;;;;;42.50;38.00;;;;;13.48;69.48;98174.78;4822613;29;8881;-79
2022/11/17 08:56:58;;;;;;;;;41.50;37.25;;;;;13.81;69.27;98177.13;4823293;29;8973;-80
2022/11/17 08:59:27;;;;;;;;;40.25;35.00;;;;;13.78;68.68;98183.31;4836533;29;8874;-78
2022/11/17 09:01:55;;;;;;;;;45.00;38.75;;;;;14.13;68.52;98188.19;4823522;29;8894;-78
2022/11/17 09:04:24;;;;;;;;;46.50;40.00;;;;;13.86;66.90;98188.28;4823134;29;8905;-77
2022/11/17 09:06:53;;;;;;;;;41.75;37.00;;;;;13.94;67.53;98180.16;4822750;29;8882;-78
2022/11/17 09:09:22;;;;;;;;;41.75;36.75;;;;;13.82;68.22;98191.94;4838200;29;8886;-76
2022/11/17 09:11:52;;;;;;;;;45.25;38.00;;;;;14.15;68.03;98186.38;4837431;29;8882;-78
2022/11/17 09:14:21;;;;;;;;;47.75;40.25;;;;;14.23;68.09;98189.56;4828251;29;9055;-78
2022/11/17 09:16:50;;;;;;;;;40.40;36.80;;;;;14.59;67.90;98189.09;4856683;29;8950;-75
2022/11/17 09:19:19;;;;;;;;;49.40;40.40;;;;;14.78;67.23;98191.84;4870235;29;8895;-78
2022/11/17 09:21:48;;;;;;;;;53.00;40.00;;;;;14.87;66.95;98196.75;4873468;29;8915;-76
2022/11/17 09:24:17;;;;;;;;;44.80;37.20;;;;;14.96;66.05;98187.66;4860216;29;8923;-75
2022/11/17 09:26:45;;;;;;;;;34.20;32.20;;;;;15.11;63.18;98183.56;4873997;29;9048;-80
2022/11/17 09:29:15;;;;;;;;;35.40;32.40;;;;;15.38;64.28;98192.06;4869769;29;8883;-75
2022/11/17 09:31:45;;;;;;;;;34.80;31.00;;;;;15.49;61.38;98191.63;4859291;29;8922;-76
2022/11/17 09:34:13;;;;;;;;;35.40;31.40;;;;;15.15;62.71;98195.66;4840998;29;9069;-75
2022/11/17 09:36:42;;;;;;;;;33.60;30.20;;;;;15.21;64.45;98188.34;4873255;29;8951;-75
2022/11/17 09:39:11;;;;;;;;;43.20;37.80;;;;;15.18;62.99;98188.50;4856558;29;8979;-75
2022/11/17 09:41:43;;;;;;;;;38.60;35.00;;;;;15.10;62.68;98185.31;4843108;29;8871;-80
2022/11/17 09:44:22;;;;;;;;;35.20;33.40;;;;;15.33;61.75;98176.50;4859102;29;8951;-78
2022/11/17 09:47:02;;;;;;;;;35.80;32.20;;;;;15.50;63.18;98182.81;4873621;29;8954;-78
2022/11/17 09:49:43;;;;;;;;;34.80;32.80;;;;;15.27;61.15;98174.13;4854834;29;8982;-78
2022/11/17 09:52:18;;;;;;;;;33.20;30.80;;;;;14.19;62.75;98172.22;4857575;29;8867;-78
2022/11/17 09:54:52;;;;;;;;;34.60;32.80;;;;;13.54;65.87;98164.09;4873436;29;9666;-77
2022/11/17 09:57:26;;;;;;;;;35.40;31.80;;;;;13.06;67.49;98170.03;4855403;29;8916;-78
2022/11/17 10:00:04;;;;;;;;;35.80;30.60;;;;;12.90;68.31;98166.22;4872632;29;8899;-78
2022/11/17 10:02:35;;;;;;;;;33.00;29.40;;;;;12.65;69.22;98165.22;4858300;29;8887;-80
2022/11/17 10:05:03;;;;;;;;;36.80;34.40;;;;;12.31;70.91;98168.03;4857730;29;8883;-77
2022/11/17 10:07:34;;;;;;;;;34.40;31.60;;;;;12.32;71.31;98164.47;4858182;29;8899;-76
2022/11/17 10:10:05;;;;;;;;;43.25;36.25;;;;;12.25;73.00;98161.22;4876442;29;8895;-76
2022/11/17 10:12:44;;;;;;;;;34.00;29.60;;;;;12.70;70.68;98154.59;4881109;29;9009;-78
2022/11/17 10:15:23;;;;;;;;;41.00;35.60;;;;;12.76;70.49;98154.44;4874255;29;8879;-77
2022/11/17 10:17:53;;;;;;;;;35.60;33.00;;;;;13.31;69.86;98146.56;4853867;29;9617;-72
2022/11/17 10:20:22;;;;;;;;;32.40;31.00;;;;;13.28;68.75;98144.00;4860704;29;9046;-74
2022/11/17 10:22:53;;;;;;;;;27.80;27.60;;;;;13.04;68.52;98145.66;4874456;29;9868;-71
2022/11/17 10:25:41;;;;;;;;;35.80;31.20;;;;;12.97;69.95;98145.03;4874157;29;9005;-72
2022/11/17 10:28:24;;;;;;;;;36.60;33.80;;;;;13.01;69.58;98144.03;4867275;29;8878;-71
2022/11/17 10:30:54;;;;;;;;;33.60;31.40;;;;;13.19;69.63;98134.69;4857676;29;9617;-74
2022/11/17 10:33:36;;;;;;;;;33.60;32.20;;;;;13.76;67.45;98129.25;4858060;29;8977;-74
2022/11/17 10:36:14;;;;;;;;;35.00;30.40;;;;;14.14;68.92;98134.84;4874465;29;8867;-73
2022/11/17 10:38:44;;;;;;;;;33.80;32.40;;;;;14.20;67.37;98132.00;4873780;29;8855;-78
2022/11/17 10:41:17;;;;;;;;;41.80;35.60;;;;;14.15;66.40;98133.94;4865657;29;8907;-78
2022/11/17 10:43:56;;;;;;;;;38.80;33.60;;;;;14.65;66.45;98135.53;4856441;29;8913;-77
2022/11/17 10:46:25;;;;;;;;;30.00;28.20;;;;;14.89;65.18;98128.44;4872847;29;8911;-78
2022/11/17 10:49:04;;;;;;;;;33.40;29.40;;;;;15.18;64.97;98120.22;4857676;29;8905;-79
2022/11/17 10:51:34;;;;;;;;;37.60;33.20;;;;;14.88;62.92;98129.38;4857387;29;8882;-79
2022/11/17 10:54:06;;;;;;;;;34.00;31.80;;;;;14.87;63.39;98123.25;4873629;29;8994;-78
2022/11/17 10:56:41;;;;;;;;;38.75;33.75;;;;;14.29;63.37;98126.41;4871542;29;9727;-79
2022/11/17 10:59:16;;;;;;;;;32.60;26.60;;;;;13.48;66.68;98135.50;4842932;29;8869;-78
2022/11/17 11:01:47;;;;;;;;;33.60;30.40;;;;;13.52;67.35;98139.72;4855144;29;8927;-77
2022/11/17 11:04:32;;;;;;;;;37.80;32.60;;;;;13.27;68.00;98132.69;4870350;29;9030;-76
2022/11/17 11:07:10;;;;;;;;;37.60;34.60;;;;;13.54;67.79;98137.88;4874126;29;8881;-78
2022/11/17 11:09:46;;;;;;;;;29.00;28.25;;;;;13.30;67.58;98133.47;4850851;29;8845;-77
2022/11/17 11:12:19;;;;;;;;;37.40;31.80;;;;;13.61;68.28;98125.41;4870808;29;8943;-78
2022/11/17 11:14:53;;;;;;;;;38.80;32.80;;;;;14.26;66.59;98131.75;4824728;29;8906;-78
2022/11/17 11:17:22;;;;;;;;;37.60;33.60;;;;;14.46;65.82;98131.00;4839820;29;8844;-79
2022/11/17 11:19:53;;;;;;;;;36.40;33.00;;;;;14.69;64.80;98130.13;4823832;29;8984;-78
2022/11/17 11:22:30;;;;;;;;;28.80;27.00;;;;;14.82;64.79;98128.72;4853741;29;9723;-79
2022/11/17 11:25:13;;;;;;;;;35.40;31.80;;;;;14.76;63.62;98122.84;4839405;29;8965;-80
2022/11/17 11:27:53;;;;;;;;;31.20;30.00;;;;;15.05;63.08;98126.91;4873232;29;8902;-77
2022/11/17 11:30:22;;;;;;;;;31.20;28.60;;;;;15.39;63.78;98128.97;4872654;29;8982;-78
2022/11/17 11:33:05;;;;;;;;;31.60;29.00;;;;;15.24;60.86;98121.75;4857222;29;8906;-80
2022/11/17 11:35:45;;;;;;;;;39.40;33.80;;;;;15.69;60.89;98117.16;4873034;29;8933;-79
2022/11/17 11:38:28;;;;;;;;;33.20;32.40;;;;;15.05;62.25;98128.66;4872457;29;8902;-79
2022/11/17 11:41:14;;;;;;;;;32.60;32.20;;;;;15.36;60.35;98129.06;4872838;29;8924;-79
2022/11/17 11:43:58;;;;;;;;;27.00;23.60;;;;;14.96;61.14;98129.91;4874407;29;9763;-77
2022/11/17 11:46:37;;;;;;;;;29.60;28.80;;;;;15.49;62.11;98126.78;4872416;29;8911;-78
2022/11/17 11:49:15;;;;;;;;;28.40;25.60;;;;;15.88;62.01;98120.72;4872047;29;8910;-79
2022/11/17 11:51:50;;;;;;;;;30.60;28.40;;;;;15.57;59.38;98111.53;4856468;29;8894;-79
2022/11/17 11:54:27;;;;;;;;;30.20;29.20;;;;;14.79;60.99;98118.31;4872090;29;8897;-78
2022/11/17 11:56:57;;;;;;;;;34.00;31.60;;;;;14.30;63.26;98114.16;4870978;29;8969;-77
2022/11/17 11:59:40;;;;;;;;;31.00;28.60;;;;;14.22;63.20;98103.97;4862682;29;8871;-78
2022/11/17 12:02:23;;;;;;;;;27.40;23.80;;;;;14.40;63.20;98110.25;4858000;29;8891;-79
2022/11/17 12:05:05;;;;;;;;;26.60;25.00;;;;;14.54;63.69;98107.09;4872047;29;8913;-78
2022/11/17 12:07:41;;;;;;;;;22.00;21.20;;;;;14.38;63.70;98106.81;4868251;29;8895;-77
2022/11/17 12:10:20;;;;;;;;;26.60;26.00;;;;;14.94;64.85;98106.34;4868951;29;8908;-75
2022/11/17 12:12:49;;;;;;;;;29.20;27.00;;;;;14.95;61.86;98105.44;4870017;29;9664;-79
2022/11/17 12:15:33;;;;;;;;;30.80;27.60;;;;;15.66;62.86;98110.28;4855851;29;8903;-75
2022/11/17 12:18:10;;;;;;;;;26.80;26.60;;;;;15.34;60.33;98111.69;4855800;29;9622;-78
2022/11/17 12:20:55;;;;;;;;;35.20;31.80;;;;;15.90;62.32;98108.38;4856713;29;9686;-76